Time;durP1;ratioP1;P1;durP2;ratioP2;P2;SDS_P1;SDS_P2;PMS_P1;PMS_P2;Temp;Humidity;BMP_temperature;BMP_pressure;BME280_temperature;BME280_humidity;BME280_pressure;Samples;Min_cycle;Max_cycle;Signal;HPM_P1;HPM_P2
2022/07/25 00:00:55;;;;;;;15.90;7.90;;;;;;;;;;10273274;28;20086;-76
2022/07/25 00:06:04;;;;;;;13.80;8.13;;;;;;;;;;10259505;28;20047;-77
2022/07/25 00:11:11;;;;;;;13.15;8.00;;;;;;;;;;10257549;28;20524;-77
2022/07/25 00:16:21;;;;;;;13.23;8.23;;;;;;;;;;10256800;28;20046;-76
2022/07/25 00:21:26;;;;;;;12.55;7.65;;;;;;;;;;10274938;28;20519;-76
2022/07/25 00:26:32;;;;;;;13.70;8.00;;;;;;;;;;10256236;28;20117;-77
2022/07/25 00:37:11;;;;;;;12.60;7.57;;;;;;;;;;10267243;28;20038;-75
2022/07/25 00:42:52;;;;;;;14.30;7.63;;;;;;;;;;10267726;28;20039;-76
2022/07/25 00:47:59;;;;;;;13.82;8.55;;;;;;;;;;10246903;28;20043;-76
2022/07/25 00:53:03;;;;;;;14.40;9.13;;;;;;;;;;10237692;28;20655;-76
2022/07/25 00:58:17;;;;;;;13.13;7.53;;;;;;;;;;10251037;28;20039;-77
2022/07/25 01:03:27;;;;;;;13.80;8.73;;;;;;;;;;10272005;28;20034;-76
2022/07/25 01:08:37;;;;;;;15.43;8.68;;;;;;;;;;10249586;28;20408;-76
2022/07/25 01:13:50;;;;;;;14.57;8.50;;;;;;;;;;10235061;28;20055;-76
2022/07/25 01:19:00;;;;;;;15.05;9.13;;;;;;;;;;10268767;28;20038;-76
2022/07/25 01:24:08;;;;;;;14.38;8.73;;;;;;;;;;10250374;28;20054;-76
2022/07/25 01:29:13;;;;;;;16.75;9.63;;;;;;;;;;10236122;28;20031;-77
2022/07/25 01:34:22;;;;;;;13.95;8.80;;;;;;;;;;10237300;28;20046;-76
2022/07/25 01:39:42;;;;;;;13.48;8.43;;;;;;;;;;10253011;28;20046;-76
2022/07/25 01:44:47;;;;;;;15.48;7.72;;;;;;;;;;10255295;28;20500;-76
2022/07/25 01:50:05;;;;;;;12.60;8.30;;;;;;;;;;10256660;28;20081;-77
2022/07/25 01:55:19;;;;;;;13.90;8.30;;;;;;;;;;10233302;28;20046;-76
2022/07/25 02:00:24;;;;;;;14.98;8.90;;;;;;;;;;10250146;28;20078;-76
2022/07/25 02:05:29;;;;;;;17.75;9.10;;;;;;;;;;10253365;28;20369;-77
2022/07/25 02:10:43;;;;;;;16.10;8.90;;;;;;;;;;10247518;28;20082;-77
2022/07/25 02:15:52;;;;;;;11.82;6.97;;;;;;;;;;10250616;28;20130;-77
2022/07/25 02:21:01;;;;;;;13.45;8.43;;;;;;;;;;10242153;28;20138;-76
2022/07/25 02:26:24;;;;;;;17.63;9.52;;;;;;;;;;10243945;28;20285;-76
2022/07/25 02:31:29;;;;;;;14.40;9.73;;;;;;;;;;10261112;28;20326;-77
2022/07/25 02:36:39;;;;;;;18.88;10.02;;;;;;;;;;10257595;28;20093;-78
2022/07/25 02:41:54;;;;;;;15.68;9.45;;;;;;;;;;10284329;28;20046;-77
2022/07/25 02:47:03;;;;;;;18.08;10.38;;;;;;;;;;10258602;28;20043;-76
2022/07/25 02:52:07;;;;;;;15.52;9.80;;;;;;;;;;10277910;28;20039;-78
2022/07/25 02:57:15;;;;;;;18.35;10.18;;;;;;;;;;10259111;28;20038;-77
2022/07/25 03:02:22;;;;;;;17.02;10.02;;;;;;;;;;10243897;28;20478;-76
2022/07/25 03:07:35;;;;;;;16.55;9.38;;;;;;;;;;10256354;28;20046;-76
2022/07/25 03:12:48;;;;;;;18.38;10.02;;;;;;;;;;10260976;28;20047;-76
2022/07/25 03:17:56;;;;;;;17.33;10.13;;;;;;;;;;10241566;28;20035;-76
2022/07/25 03:23:01;;;;;;;17.85;10.27;;;;;;;;;;10259013;28;20530;-76
2022/07/25 03:28:12;;;;;;;16.10;10.02;;;;;;;;;;10257514;28;20058;-76
2022/07/25 03:33:16;;;;;;;17.98;9.60;;;;;;;;;;10273464;28;20090;-77
2022/07/25 03:38:23;;;;;;;17.02;9.88;;;;;;;;;;10278229;28;20485;-76
2022/07/25 03:43:31;;;;;;;16.23;9.20;;;;;;;;;;10275379;28;20035;-76
2022/07/25 03:48:44;;;;;;;17.23;9.87;;;;;;;;;;10275941;28;20053;-75
2022/07/25 03:54:05;;;;;;;18.35;10.18;;;;;;;;;;10254176;28;20032;-75
2022/07/25 03:59:16;;;;;;;21.02;9.90;;;;;;;;;;10256291;28;20416;-75
2022/07/25 04:04:22;;;;;;;16.50;7.85;;;;;;;;;;10260268;28;20051;-76
2022/07/25 04:09:29;;;;;;;17.23;9.95;;;;;;;;;;10267051;28;20117;-76
2022/07/25 04:14:54;;;;;;;16.13;9.88;;;;;;;;;;10253068;28;20166;-76
2022/07/25 04:19:58;;;;;;;18.48;10.00;;;;;;;;;;10257237;28;20191;-77
2022/07/25 04:25:08;;;;;;;15.30;9.93;;;;;;;;;;10242106;28;20050;-77
2022/07/25 04:30:17;;;;;;;12.90;7.28;;;;;;;;;;10268523;28;20360;-76
2022/07/25 04:35:31;;;;;;;16.13;9.52;;;;;;;;;;10252583;28;20514;-76
2022/07/25 04:40:39;;;;;;;14.82;9.40;;;;;;;;;;10274111;28;20339;-76
2022/07/25 04:45:51;;;;;;;14.63;9.10;;;;;;;;;;10258018;28;20031;-76
2022/07/25 04:51:02;;;;;;;8.95;5.20;;;;;;;;;;10254964;28;20055;-76
2022/07/25 04:56:16;;;;;;;15.38;9.13;;;;;;;;;;10239171;28;20035;-77
2022/07/25 05:01:37;;;;;;;17.10;9.63;;;;;;;;;;10246967;28;20051;-76
2022/07/25 05:06:45;;;;;;;16.92;8.77;;;;;;;;;;10269047;28;20043;-76
2022/07/25 05:11:50;;;;;;;17.20;9.38;;;;;;;;;;10255269;28;20047;-76
2022/07/25 05:17:03;;;;;;;14.40;8.85;;;;;;;;;;10270677;28;20035;-76
2022/07/25 05:22:08;;;;;;;16.42;9.85;;;;;;;;;;10249237;28;20428;-76
2022/07/25 05:27:13;;;;;;;17.10;9.50;;;;;;;;;;10270925;28;20045;-76
2022/07/25 05:32:23;;;;;;;13.07;8.43;;;;;;;;;;10268542;28;20062;-77
2022/07/25 05:37:28;;;;;;;15.93;7.45;;;;;;;;;;10253692;28;20143;-77
2022/07/25 05:42:36;;;;;;;14.85;8.90;;;;;;;;;;10250115;28;20038;-77
2022/07/25 05:47:44;;;;;;;15.60;9.00;;;;;;;;;;10251085;28;20131;-77
2022/07/25 05:52:54;;;;;;;16.27;9.82;;;;;;;;;;10270519;28;20542;-77
2022/07/25 05:58:02;;;;;;;17.25;9.48;;;;;;;;;;10246373;28;20039;-77
2022/07/25 06:03:17;;;;;;;14.63;7.20;;;;;;;;;;10250696;28;20046;-77
2022/07/25 06:08:23;;;;;;;16.27;9.52;;;;;;;;;;10252565;28;20059;-77
2022/07/25 06:13:31;;;;;;;17.67;9.93;;;;;;;;;;10265460;28;20050;-78
2022/07/25 06:18:42;;;;;;;14.77;9.52;;;;;;;;;;10237221;28;20054;-77
2022/07/25 06:23:46;;;;;;;17.58;10.45;;;;;;;;;;10231597;28;20123;-78
2022/07/25 06:28:52;;;;;;;19.23;10.15;;;;;;;;;;10260066;28;20054;-77
2022/07/25 06:33:59;;;;;;;11.50;6.57;;;;;;;;;;10250160;28;20066;-86
2022/07/25 06:39:07;;;;;;;18.02;8.60;;;;;;;;;;10249153;28;20433;-85
2022/07/25 06:44:11;;;;;;;16.58;8.38;;;;;;;;;;10253714;28;20212;-85
2022/07/25 06:49:26;;;;;;;13.88;8.50;;;;;;;;;;10251315;28;20121;-85
2022/07/25 06:54:38;;;;;;;14.25;6.43;;;;;;;;;;10269129;28;20058;-84
2022/07/25 06:59:44;;;;;;;15.80;9.48;;;;;;;;;;10253721;28;20515;-85
2022/07/25 07:04:52;;;;;;;14.32;9.13;;;;;;;;;;10261569;28;20049;-85
2022/07/25 07:10:05;;;;;;;16.85;9.52;;;;;;;;;;10278585;28;20476;-85
2022/07/25 07:15:18;;;;;;;18.20;9.88;;;;;;;;;;10260218;28;20176;-85
2022/07/25 07:20:24;;;;;;;17.45;10.15;;;;;;;;;;10257136;28;20049;-85
2022/07/25 07:25:31;;;;;;;13.82;9.50;;;;;;;;;;10250407;28;20063;-85
2022/07/25 07:30:40;;;;;;;15.85;9.68;;;;;;;;;;10259891;28;20428;-85
2022/07/25 07:36:03;;;;;;;14.82;9.60;;;;;;;;;;10258304;28;20128;-85
2022/07/25 07:41:08;;;;;;;13.75;9.48;;;;;;;;;;10277840;28;20038;-85
2022/07/25 07:46:14;;;;;;;11.73;8.07;;;;;;;;;;10270020;28;20043;-85
2022/07/25 07:51:19;;;;;;;13.23;9.50;;;;;;;;;;10262631;28;20042;-86
2022/07/25 07:56:23;;;;;;;15.55;10.02;;;;;;;;;;10269692;28;20411;-85
2022/07/25 08:01:32;;;;;;;14.43;10.45;;;;;;;;;;10257900;28;20059;-87
2022/07/25 08:12:10;;;;;;;;;;;;;;;;;;10249665;28;20094;-85
2022/07/25 08:17:39;;;;;;;12.98;10.23;;;;;;;;;;10247902;28;19926;-86
2022/07/25 08:22:51;;;;;;;11.02;9.93;;;;;;;;;;10277714;28;20472;-86
2022/07/25 08:28:00;;;;;;;11.18;9.73;;;;;;;;;;10274319;28;20133;-86
2022/07/25 08:33:09;;;;;;;10.55;9.23;;;;;;;;;;10268051;28;20039;-86
2022/07/25 08:38:23;;;;;;;12.38;9.60;;;;;;;;;;10271390;28;20070;-86
2022/07/25 08:43:31;;;;;;;12.00;9.43;;;;;;;;;;10271579;28;20051;-87
2022/07/25 08:54:01;;;;;;;9.80;8.90;;;;;;;;;;10251467;28;20126;-87
2022/07/25 08:59:18;;;;;;;10.88;9.77;;;;;;;;;;10250731;28;20220;-86
2022/07/25 09:04:24;;;;;;;10.65;9.63;;;;;;;;;;10249129;28;20053;-87
2022/07/25 09:09:35;;;;;;;11.13;9.52;;;;;;;;;;10266957;28;20053;-87
2022/07/25 09:14:47;;;;;;;10.15;9.25;;;;;;;;;;10253469;28;20117;-87
2022/07/25 09:20:12;;;;;;;10.80;9.70;;;;;;;;;;10266770;28;20038;-88
2022/07/25 09:25:28;;;;;;;10.00;9.07;;;;;;;;;;10253436;28;20306;-88
2022/07/25 09:30:55;;;;;;;9.52;7.85;;;;;;;;;;10255986;28;20053;-87
2022/07/25 09:36:14;;;;;;;10.13;8.93;;;;;;;;;;10269590;28;20531;-87
2022/07/25 09:41:33;;;;;;;10.50;9.55;;;;;;;;;;10280625;28;20063;-88
2022/07/25 09:46:44;;;;;;;;;;;;;;;;;;10268616;28;20472;-87
2022/07/25 09:52:12;;;;;;;11.23;9.82;;;;;;;;;;10557572;27;20434;-86
2022/07/25 09:57:15;;;;;;;10.60;9.50;;;;;;;;;;10528821;28;20485;-87
2022/07/25 10:02:26;;;;;;;9.98;9.07;;;;;;;;;;10561970;27;20127;-87
2022/07/25 10:07:30;;;;;;;10.60;9.00;;;;;;;;;;10528617;28;20040;-88
2022/07/25 10:12:33;;;;;;;10.48;9.45;;;;;;;;;;10531521;28;20063;-87
2022/07/25 10:17:38;;;;;;;9.70;8.80;;;;;;;;;;10530031;28;20687;-86
2022/07/25 10:22:44;;;;;;;10.23;9.32;;;;;;;;;;10528694;28;20047;-88
2022/07/25 10:28:01;;;;;;;10.30;9.30;;;;;;;;;;10528653;28;20028;-85
2022/07/25 10:33:10;;;;;;;9.50;8.48;;;;;;;;;;10523284;28;20064;-85
2022/07/25 10:38:23;;;;;;;10.27;9.27;;;;;;;;;;10518429;28;20316;-85
2022/07/25 10:43:26;;;;;;;9.70;8.90;;;;;;;;;;10532504;28;20147;-84
2022/07/25 10:48:30;;;;;;;10.20;9.13;;;;;;;;;;10530791;28;20055;-85
2022/07/25 10:53:37;;;;;;;9.05;8.07;;;;;;;;;;10525358;28;20111;-85
2022/07/25 10:58:44;;;;;;;8.60;7.90;;;;;;;;;;10518442;28;20135;-85
2022/07/25 11:03:47;;;;;;;8.40;7.47;;;;;;;;;;10499121;28;20302;-84
2022/07/25 11:08:56;;;;;;;20.63;8.13;;;;;;;;;;10495261;28;20044;-82
2022/07/25 11:13:59;;;;;;;8.23;7.40;;;;;;;;;;10494656;28;20412;-83
2022/07/25 11:19:02;;;;;;;7.95;6.47;;;;;;;;;;10494455;28;20040;-83
2022/07/25 11:24:07;;;;;;;9.27;6.78;;;;;;;;;;10498020;28;20068;-84
2022/07/25 11:29:18;;;;;;;6.82;6.22;;;;;;;;;;10497851;28;20524;-84
2022/07/25 11:34:23;;;;;;;7.65;6.90;;;;;;;;;;10493436;28;20036;-84
2022/07/25 11:39:28;;;;;;;8.95;5.85;;;;;;;;;;10494552;28;20028;-84
2022/07/25 11:44:35;;;;;;;6.55;5.90;;;;;;;;;;10532253;27;20075;-83
2022/07/25 11:49:45;;;;;;;6.88;5.95;;;;;;;;;;10493374;28;20903;-83
2022/07/25 11:54:53;;;;;;;7.65;5.97;;;;;;;;;;10496378;28;20040;-83
2022/07/25 11:59:56;;;;;;;6.50;5.90;;;;;;;;;;10479466;28;20068;-84
2022/07/25 12:05:00;;;;;;;7.38;5.75;;;;;;;;;;10492685;28;20052;-83
2022/07/25 12:10:04;;;;;;;6.25;5.60;;;;;;;;;;10494117;28;20101;-84
2022/07/25 12:15:09;;;;;;;7.78;5.75;;;;;;;;;;10499494;28;20465;-83
2022/07/25 12:20:15;;;;;;;7.07;6.05;;;;;;;;;;10498428;28;20132;-83
2022/07/25 12:25:21;;;;;;;5.93;5.32;;;;;;;;;;10491564;28;20103;-85
2022/07/25 12:30:27;;;;;;;6.00;5.38;;;;;;;;;;10520871;27;20736;-84
2022/07/25 12:35:31;;;;;;;6.10;5.50;;;;;;;;;;10490587;28;20043;-84
2022/07/25 12:40:35;;;;;;;7.55;6.30;;;;;;;;;;10491849;28;20072;-84
2022/07/25 12:45:38;;;;;;;8.20;6.30;;;;;;;;;;10491596;28;20094;-85
2022/07/25 12:50:40;;;;;;;8.43;6.35;;;;;;;;;;10484899;28;20120;-84
2022/07/25 12:55:45;;;;;;;7.25;6.10;;;;;;;;;;10496000;28;20029;-84
2022/07/25 13:00:48;;;;;;;8.32;5.78;;;;;;;;;;10489528;28;20649;-84
2022/07/25 13:05:51;;;;;;;7.30;6.22;;;;;;;;;;10524581;27;20078;-84
2022/07/25 13:10:55;;;;;;;7.68;6.28;;;;;;;;;;10485035;28;20032;-84
2022/07/25 13:15:59;;;;;;;7.93;6.18;;;;;;;;;;10497347;28;20036;-84
2022/07/25 13:21:02;;;;;;;10.23;6.93;;;;;;;;;;10486093;28;20051;-84
2022/07/25 13:26:06;;;;;;;8.52;6.07;;;;;;;;;;10492510;28;20554;-84
2022/07/25 13:31:21;;;;;;;9.10;5.75;;;;;;;;;;10489953;28;20336;-85
2022/07/25 13:36:24;;;;;;;6.75;4.70;;;;;;;;;;10493265;28;20044;-85
2022/07/25 13:41:28;;;;;;;11.23;6.63;;;;;;;;;;10495280;28;20540;-85
2022/07/25 13:46:31;;;;;;;8.10;6.07;;;;;;;;;;10493815;28;20485;-84
2022/07/25 13:51:34;;;;;;;7.18;5.60;;;;;;;;;;10491151;28;20033;-85
2022/07/25 13:56:40;;;;;;;7.80;5.68;;;;;;;;;;10492954;28;20071;-85
2022/07/25 14:01:44;;;;;;;7.40;5.25;;;;;;;;;;10485719;28;20092;-85
2022/07/25 14:06:50;;;;;;;7.97;5.82;;;;;;;;;;10484405;28;20323;-85
2022/07/25 14:11:55;;;;;;;5.47;4.18;;;;;;;;;;10490543;28;20476;-85
2022/07/25 14:16:58;;;;;;;7.88;5.80;;;;;;;;;;10481767;28;20524;-84
2022/07/25 14:22:00;;;;;;;7.68;4.82;;;;;;;;;;10491615;28;20119;-84
2022/07/25 14:27:05;;;;;;;9.18;5.18;;;;;;;;;;10488757;28;20659;-84
2022/07/25 14:32:08;;;;;;;6.43;5.03;;;;;;;;;;10494428;28;20133;-84
2022/07/25 14:37:11;;;;;;;6.43;5.10;;;;;;;;;;10528669;27;20044;-84
2022/07/25 14:42:16;;;;;;;8.07;5.15;;;;;;;;;;10497527;28;20044;-84
2022/07/25 14:47:19;;;;;;;6.75;4.65;;;;;;;;;;10499613;28;20098;-84
2022/07/25 14:52:22;;;;;;;5.93;4.43;;;;;;;;;;10498946;28;20071;-84
2022/07/25 14:57:26;;;;;;;7.85;4.68;;;;;;;;;;10493377;28;20077;-85
2022/07/25 15:02:31;;;;;;;8.27;4.50;;;;;;;;;;10523568;27;20041;-85
2022/07/25 15:07:33;;;;;;;5.90;4.15;;;;;;;;;;10525220;27;20075;-84
2022/07/25 15:12:39;;;;;;;6.55;4.60;;;;;;;;;;10486627;28;20032;-85
2022/07/25 15:17:42;;;;;;;6.43;4.47;;;;;;;;;;10495461;28;20032;-84
2022/07/25 15:22:44;;;;;;;7.22;4.20;;;;;;;;;;10494389;28;20248;-84
2022/07/25 15:27:49;;;;;;;7.68;3.35;;;;;;;;;;10493725;28;20355;-85
2022/07/25 15:32:52;;;;;;;7.68;3.67;;;;;;;;;;10499270;28;20472;-84
2022/07/25 15:37:56;;;;;;;4.90;3.63;;;;;;;;;;10499084;28;20032;-84
2022/07/25 15:43:00;;;;;;;6.32;4.32;;;;;;;;;;10501995;28;20282;-85
2022/07/25 15:48:06;;;;;;;5.85;3.50;;;;;;;;;;10503224;28;20556;-85
2022/07/25 15:53:10;;;;;;;6.05;3.17;;;;;;;;;;10509656;28;20036;-84
2022/07/25 15:58:16;;;;;;;6.32;3.90;;;;;;;;;;10494819;28;20606;-85
2022/07/25 16:03:20;;;;;;;4.70;3.55;;;;;;;;;;10525359;27;20043;-84
2022/07/25 16:08:23;;;;;;;4.50;3.33;;;;;;;;;;10500547;28;21028;-83
2022/07/25 16:13:28;;;;;;;6.20;3.97;;;;;;;;;;10495796;28;20212;-85
2022/07/25 16:18:31;;;;;;;4.95;3.63;;;;;;;;;;10502620;28;20224;-84
2022/07/25 16:23:37;;;;;;;5.30;3.70;;;;;;;;;;10501970;28;20036;-84
2022/07/25 16:28:48;;;;;;;7.38;4.35;;;;;;;;;;10487363;28;20465;-85
2022/07/25 16:33:51;;;;;;;9.75;5.00;;;;;;;;;;10495299;28;20033;-86
2022/07/25 16:38:54;;;;;;;7.38;4.30;;;;;;;;;;10494120;28;20115;-85
2022/07/25 16:43:58;;;;;;;6.88;4.40;;;;;;;;;;10495089;28;20044;-86
2022/07/25 16:49:01;;;;;;;8.35;4.75;;;;;;;;;;10495162;28;20170;-85
2022/07/25 16:54:04;;;;;;;7.30;5.10;;;;;;;;;;10501510;28;20036;-84
2022/07/25 16:59:09;;;;;;;11.73;5.47;;;;;;;;;;10527227;27;20511;-83
2022/07/25 17:04:13;;;;;;;7.07;5.55;;;;;;;;;;10493847;28;20150;-85
2022/07/25 17:09:16;;;;;;;8.20;5.88;;;;;;;;;;10522579;27;20040;-86
2022/07/25 17:14:21;;;;;;;5.65;4.20;;;;;;;;;;10497405;28;20036;-86
2022/07/25 17:19:34;;;;;;;9.32;5.63;;;;;;;;;;10491157;28;20053;-85
2022/07/25 17:24:38;;;;;;;9.00;5.65;;;;;;;;;;10485637;28;20032;-86
2022/07/25 17:29:42;;;;;;;9.90;6.20;;;;;;;;;;10489746;28;20048;-84
2022/07/25 17:34:45;;;;;;;9.25;6.05;;;;;;;;;;10494487;28;20128;-84
2022/07/25 17:39:48;;;;;;;9.15;6.03;;;;;;;;;;10491609;28;20507;-83
2022/07/25 17:44:54;;;;;;;14.52;8.90;;;;;;;;;;10497865;28;20047;-83
2022/07/25 17:49:57;;;;;;;9.45;6.43;;;;;;;;;;10490769;28;20051;-84
2022/07/25 17:54:59;;;;;;;9.75;6.10;;;;;;;;;;10501128;28;20587;-85
2022/07/25 18:00:05;;;;;;;13.70;8.15;;;;;;;;;;10530129;28;20033;-84
2022/07/25 18:05:08;;;;;;;12.13;5.97;;;;;;;;;;10515939;28;20338;-83
2022/07/25 18:10:10;;;;;;;9.35;6.57;;;;;;;;;;10515463;28;20147;-83
2022/07/25 18:15:14;;;;;;;10.68;6.40;;;;;;;;;;10518188;28;20055;-84
2022/07/25 18:20:17;;;;;;;11.18;6.70;;;;;;;;;;10502668;28;20033;-83
2022/07/25 18:25:20;;;;;;;14.05;6.40;;;;;;;;;;10516803;28;20036;-83
2022/07/25 18:30:25;;;;;;;12.77;6.30;;;;;;;;;;10508244;28;20064;-84
2022/07/25 18:35:31;;;;;;;9.07;6.35;;;;;;;;;;10499797;28;20309;-85
2022/07/25 18:40:33;;;;;;;12.13;6.32;;;;;;;;;;10533416;27;20034;-85
2022/07/25 18:45:38;;;;;;;13.52;7.80;;;;;;;;;;10495201;28;20081;-85
2022/07/25 18:50:41;;;;;;;7.75;5.70;;;;;;;;;;10492056;28;20036;-76
2022/07/25 18:55:44;;;;;;;11.13;7.25;;;;;;;;;;10494432;28;20036;-76
2022/07/25 19:00:49;;;;;;;11.32;5.85;;;;;;;;;;10498542;28;20036;-75
2022/07/25 19:05:53;;;;;;;10.98;6.20;;;;;;;;;;10491593;28;20043;-75
2022/07/25 19:11:03;;;;;;;23.48;15.73;;;;;;;;;;10499126;28;20040;-76
2022/07/25 19:16:09;;;;;;;12.00;7.70;;;;;;;;;;10491986;28;20131;-76
2022/07/25 19:21:12;;;;;;;15.02;8.80;;;;;;;;;;10491701;28;20552;-75
2022/07/25 19:26:16;;;;;;;17.38;10.07;;;;;;;;;;10495476;28;20055;-76
2022/07/25 19:31:20;;;;;;;10.25;6.43;;;;;;;;;;10496005;28;20029;-76
2022/07/25 19:36:23;;;;;;;15.82;10.10;;;;;;;;;;10497309;28;20199;-75
2022/07/25 19:41:27;;;;;;;12.05;7.25;;;;;;;;;;10492599;28;20493;-74
2022/07/25 19:46:32;;;;;;;15.02;8.57;;;;;;;;;;10489045;28;20040;-76
2022/07/25 19:51:35;;;;;;;12.00;6.80;;;;;;;;;;10487818;28;20564;-77
2022/07/25 19:56:38;;;;;;;11.98;6.43;;;;;;;;;;10501099;28;20486;-77
2022/07/25 20:01:45;;;;;;;12.55;6.50;;;;;;;;;;10482416;28;20037;-75
2022/07/25 20:06:49;;;;;;;16.05;8.35;;;;;;;;;;10488476;28;20135;-75
2022/07/25 20:11:52;;;;;;;13.55;6.32;;;;;;;;;;10489043;28;20102;-75
2022/07/25 20:16:57;;;;;;;11.13;5.95;;;;;;;;;;10489351;28;20039;-74
2022/07/25 20:22:00;;;;;;;10.90;6.38;;;;;;;;;;10479851;28;20032;-76
2022/07/25 20:27:03;;;;;;;13.80;6.57;;;;;;;;;;10497559;28;20354;-76
2022/07/25 20:32:08;;;;;;;9.60;4.88;;;;;;;;;;10489605;28;20040;-76
2022/07/25 20:37:10;;;;;;;10.13;5.22;;;;;;;;;;10486468;28;20036;-75
2022/07/25 20:42:15;;;;;;;8.38;5.80;;;;;;;;;;10501519;28;20036;-75
2022/07/25 20:47:19;;;;;;;9.82;5.65;;;;;;;;;;10500895;28;20169;-74
2022/07/25 20:52:22;;;;;;;15.65;6.93;;;;;;;;;;10479340;28;20041;-74
2022/07/25 20:57:26;;;;;;;12.32;6.95;;;;;;;;;;10491245;28;20055;-75
2022/07/25 21:02:31;;;;;;;11.05;6.38;;;;;;;;;;10497704;28;20139;-74
2022/07/25 21:07:34;;;;;;;8.85;5.55;;;;;;;;;;10501513;28;20036;-74
2022/07/25 21:12:37;;;;;;;15.85;7.07;;;;;;;;;;10497838;28;20055;-74
2022/07/25 21:17:42;;;;;;;9.93;5.38;;;;;;;;;;10513080;28;20081;-75
2022/07/25 21:22:45;;;;;;;10.38;5.95;;;;;;;;;;10526016;28;20143;-76
2022/07/25 21:27:48;;;;;;;;;;;;;;;;;;10546747;28;20058;-74
2022/07/25 21:32:52;;;;;;;13.27;4.80;;;;;;;;;;10535379;28;19920;-72
2022/07/25 21:37:55;;;;;;;14.48;6.93;;;;;;;;;;10520468;28;20086;-75
2022/07/25 21:42:57;;;;;;;14.50;6.38;;;;;;;;;;10514664;28;20130;-73
2022/07/25 21:48:03;;;;;;;14.98;6.70;;;;;;;;;;10578870;27;20028;-92
2022/07/25 21:53:08;;;;;;;12.68;5.38;;;;;;;;;;10551454;28;20029;-93
2022/07/25 21:58:37;;;;;;;22.48;9.27;;;;;;;;;;10517372;28;20407;-92
2022/07/25 22:04:20;;;;;;;11.88;5.75;;;;;;;;;;10506335;28;20032;-92
2022/07/25 22:09:49;;;;;;;;;;;;;;;;;;10501865;28;20037;-93
2022/07/25 22:15:16;;;;;;;17.40;6.63;;;;;;;;;;10495180;28;19925;-80
2022/07/25 22:20:23;;;;;;;25.02;5.20;;;;;;;;;;10473150;28;20044;-79
2022/07/25 22:25:41;;;;;;;16.15;4.95;;;;;;;;;;10487034;28;20036;-79
2022/07/25 22:30:51;;;;;;;11.07;5.70;;;;;;;;;;10494858;28;20305;-79
2022/07/25 22:35:58;;;;;;;22.20;7.35;;;;;;;;;;10494441;28;20040;-80
2022/07/25 22:41:07;;;;;;;11.10;4.60;;;;;;;;;;10488224;28;20048;-81
2022/07/25 22:46:27;;;;;;;19.27;5.85;;;;;;;;;;10494065;28;20032;-81
2022/07/25 22:51:37;;;;;;;11.57;4.50;;;;;;;;;;10492009;28;20044;-81
2022/07/25 22:56:45;;;;;;;21.83;6.07;;;;;;;;;;10484598;28;20148;-80
2022/07/25 23:02:11;;;;;;;8.75;3.65;;;;;;;;;;10501002;28;20044;-83
2022/07/25 23:07:29;;;;;;;10.43;3.22;;;;;;;;;;10496944;28;20186;-82
2022/07/25 23:12:38;;;;;;;19.10;6.68;;;;;;;;;;10475906;28;20059;-83
2022/07/25 23:17:50;;;;;;;12.57;4.75;;;;;;;;;;10489900;28;20494;-82
2022/07/25 23:22:57;;;;;;;12.43;4.53;;;;;;;;;;10505900;28;20120;-82
2022/07/25 23:28:06;;;;;;;23.88;6.82;;;;;;;;;;10496779;28;20036;-83
2022/07/25 23:33:19;;;;;;;17.65;4.15;;;;;;;;;;10528570;27;20043;-79
2022/07/25 23:38:27;;;;;;;;;;;;;;;;;;10496455;28;20278;-78
2022/07/25 23:43:49;;;;;;;14.00;5.13;;;;;;;;;;10497488;28;19920;-79
2022/07/25 23:49:05;;;;;;;11.38;3.63;;;;;;;;;;10485708;28;20040;-77
2022/07/25 23:54:10;;;;;;;12.88;5.03;;;;;;;;;;10497504;28;20445;-77
2022/07/25 23:59:15;;;;;;;5.28;2.35;;;;;;;;;;10491998;28;20223;-77
